createdAt,value
2019-03-27T00:00:33.603Z,0.00
2019-03-27T00:01:34.520Z,0.00
2019-03-27T00:02:33.756Z,0.00
2019-03-27T00:03:33.553Z,0.00
2019-03-27T00:04:33.544Z,0.00
2019-03-27T00:05:33.559Z,0.00
2019-03-27T00:06:33.516Z,0.00
2019-03-27T00:07:33.512Z,0.00
2019-03-27T00:08:33.494Z,0.00
2019-03-27T00:09:33.485Z,0.00
2019-03-27T00:10:33.491Z,0.00
2019-03-27T00:11:33.466Z,0.00
2019-03-27T00:12:33.451Z,0.00
2019-03-27T00:13:33.449Z,0.00
2019-03-27T00:14:33.424Z,0.00
2019-03-27T00:15:33.433Z,0.00
2019-03-27T00:16:33.409Z,0.00
2019-03-27T00:17:33.402Z,0.00
2019-03-27T00:18:33.648Z,0.00
2019-03-27T00:19:33.485Z,0.00
2019-03-27T00:20:33.392Z,0.00
2019-03-27T00:21:33.365Z,0.00
2019-03-27T00:22:33.332Z,0.00
2019-03-27T00:23:33.330Z,0.00
2019-03-27T00:24:33.312Z,8.00
2019-03-27T00:25:33.330Z,8.00
2019-03-27T00:26:33.293Z,8.00
2019-03-27T00:27:33.276Z,8.00
2019-03-27T00:28:33.270Z,8.00
2019-03-27T00:29:33.263Z,8.00
2019-03-27T00:30:33.249Z,0.00
2019-03-27T00:31:33.260Z,0.00
2019-03-27T00:32:33.235Z,0.00
2019-03-27T00:33:33.216Z,0.00
2019-03-27T00:34:33.206Z,0.00
2019-03-27T00:35:33.190Z,0.00
2019-03-27T00:36:33.200Z,0.00
2019-03-27T00:37:33.171Z,0.00
2019-03-27T00:38:33.157Z,0.00
2019-03-27T00:39:33.146Z,0.00
2019-03-27T00:40:33.141Z,0.00
2019-03-27T00:41:33.138Z,0.00
2019-03-27T00:42:33.120Z,0.00
2019-03-27T00:43:33.103Z,0.00
2019-03-27T00:44:33.088Z,0.00
2019-03-27T00:45:33.077Z,0.00
2019-03-27T00:46:33.089Z,0.00
2019-03-27T00:47:33.057Z,0.00
2019-03-27T00:48:33.046Z,0.00
2019-03-27T00:49:33.032Z,0.00
2019-03-27T00:50:33.023Z,8.00
2019-03-27T00:51:33.031Z,8.00
2019-03-27T00:52:33.002Z,8.00
2019-03-27T00:53:32.986Z,0.00
2019-03-27T00:54:32.978Z,0.00
2019-03-27T00:55:32.972Z,0.00
2019-03-27T00:56:32.997Z,0.00
2019-03-27T00:57:32.948Z,0.00
2019-03-27T00:58:32.934Z,0.00
2019-03-27T00:59:32.927Z,0.00
2019-03-27T01:00:32.915Z,0.00
2019-03-27T01:01:32.904Z,0.00
2019-03-27T01:02:32.901Z,0.00
2019-03-27T01:03:32.883Z,0.00
2019-03-27T01:04:32.877Z,0.00
2019-03-27T01:05:32.856Z,0.00
2019-03-27T01:06:32.861Z,0.00
2019-03-27T01:07:32.849Z,0.00
2019-03-27T01:08:32.831Z,0.00
2019-03-27T01:09:32.812Z,0.00
2019-03-27T01:10:32.797Z,0.00
2019-03-27T01:11:32.790Z,0.00
2019-03-27T01:12:32.797Z,0.00
2019-03-27T01:13:32.763Z,0.00
2019-03-27T01:14:32.762Z,0.00
2019-03-27T01:15:39.592Z,0.00
2019-03-27T01:16:33.730Z,0.00
2019-03-27T01:17:32.803Z,0.00
2019-03-27T01:18:32.707Z,0.00
2019-03-27T01:19:32.690Z,0.00
2019-03-27T01:20:32.690Z,0.00
2019-03-27T01:21:32.673Z,0.00
2019-03-27T01:22:32.692Z,0.00
2019-03-27T01:23:32.671Z,0.00
2019-03-27T01:24:32.645Z,0.00
2019-03-27T01:25:32.641Z,0.00
2019-03-27T01:26:32.626Z,0.00
2019-03-27T01:27:35.525Z,0.00
2019-03-27T01:28:32.598Z,0.00
2019-03-27T01:29:32.587Z,0.00
2019-03-27T01:30:32.576Z,0.00
2019-03-27T01:31:32.581Z,0.00
2019-03-27T01:32:32.566Z,0.00
2019-03-27T01:33:32.548Z,0.00
2019-03-27T01:34:32.535Z,0.00
2019-03-27T01:35:32.525Z,0.00
2019-03-27T01:36:32.509Z,0.00
2019-03-27T01:37:32.516Z,0.00
2019-03-27T01:38:32.493Z,0.00
2019-03-27T01:39:32.476Z,0.00
2019-03-27T01:40:32.468Z,0.00
2019-03-27T01:41:32.454Z,0.00
2019-03-27T01:42:32.473Z,0.00
2019-03-27T01:43:32.428Z,0.00
2019-03-27T01:44:32.419Z,0.00
2019-03-27T01:45:32.415Z,0.00
2019-03-27T01:46:32.394Z,0.00
2019-03-27T01:47:32.383Z,0.00
2019-03-27T01:48:32.408Z,0.00
2019-03-27T01:49:32.370Z,0.00
2019-03-27T01:50:32.357Z,0.00
2019-03-27T01:51:32.336Z,0.00
2019-03-27T01:52:32.334Z,0.00
2019-03-27T01:53:32.355Z,0.00
2019-03-27T01:54:32.330Z,0.00
2019-03-27T01:55:32.305Z,0.00
2019-03-27T01:56:32.295Z,0.00
2019-03-27T01:57:32.271Z,0.00
2019-03-27T01:58:32.272Z,0.00
2019-03-27T01:59:32.260Z,0.00
2019-03-27T02:00:32.243Z,0.00
2019-03-27T02:01:32.252Z,0.00
2019-03-27T02:02:32.232Z,0.00
2019-03-27T02:03:32.245Z,0.00
2019-03-27T02:04:32.194Z,0.00
2019-03-27T02:05:32.184Z,0.00
2019-03-27T02:06:32.176Z,0.00
2019-03-27T02:07:32.170Z,0.00
2019-03-27T02:08:32.174Z,0.00
2019-03-27T02:09:32.139Z,0.00
2019-03-27T02:10:32.130Z,0.00
2019-03-27T02:11:32.153Z,0.00
2019-03-27T02:12:32.107Z,0.00
2019-03-27T02:13:32.117Z,0.00
2019-03-27T02:14:32.082Z,0.00
2019-03-27T02:15:32.076Z,0.00
2019-03-27T02:16:32.057Z,0.00
2019-03-27T02:17:32.047Z,0.00
2019-03-27T02:18:32.144Z,0.00
2019-03-27T02:19:32.026Z,0.00
2019-03-27T02:20:32.014Z,0.00
2019-03-27T02:21:32.009Z,0.00
2019-03-27T02:22:32.006Z,0.00
2019-03-27T02:23:32.010Z,0.00
2019-03-27T02:24:31.978Z,0.00
2019-03-27T02:25:31.962Z,0.00
2019-03-27T02:26:31.956Z,0.00
2019-03-27T02:27:31.936Z,0.00
2019-03-27T02:28:31.948Z,0.00
2019-03-27T02:29:31.922Z,0.00
2019-03-27T02:30:31.929Z,0.00
2019-03-27T02:31:31.895Z,0.00
2019-03-27T02:32:31.885Z,0.00
2019-03-27T02:33:31.907Z,0.00
2019-03-27T02:34:31.865Z,0.00
2019-03-27T02:35:31.862Z,0.00
2019-03-27T02:36:31.835Z,0.00
2019-03-27T02:37:31.821Z,0.00
2019-03-27T02:38:31.839Z,0.00
2019-03-27T02:39:31.830Z,0.00
2019-03-27T02:40:31.802Z,0.00
2019-03-27T02:41:31.790Z,0.00
2019-03-27T02:42:31.770Z,0.00
2019-03-27T02:43:31.791Z,0.00
2019-03-27T02:44:31.755Z,0.00
2019-03-27T02:45:31.732Z,0.00
2019-03-27T02:46:31.726Z,0.00
2019-03-27T02:47:31.716Z,0.00
2019-03-27T02:48:31.699Z,0.00
2019-03-27T02:49:31.709Z,0.00
2019-03-27T02:50:31.687Z,0.00
2019-03-27T02:51:31.666Z,0.00
2019-03-27T02:52:31.664Z,0.00
2019-03-27T02:53:31.646Z,0.00
2019-03-27T02:54:31.658Z,0.00
2019-03-27T02:55:31.637Z,0.00
2019-03-27T02:56:31.626Z,0.00
2019-03-27T02:57:31.610Z,0.00
2019-03-27T02:58:31.602Z,0.00
2019-03-27T02:59:31.602Z,0.00
2019-03-27T03:00:31.569Z,0.00
2019-03-27T03:01:31.555Z,0.00
2019-03-27T03:02:31.543Z,0.00
2019-03-27T03:03:31.534Z,0.00
2019-03-27T03:04:31.555Z,0.00
2019-03-27T03:05:31.530Z,0.00
2019-03-27T03:06:31.512Z,0.00
2019-03-27T03:07:31.507Z,0.00
2019-03-27T03:08:31.475Z,0.00
2019-03-27T03:09:31.492Z,0.00
2019-03-27T03:10:31.468Z,0.00
2019-03-27T03:11:31.448Z,0.00
2019-03-27T03:12:31.437Z,0.00
2019-03-27T03:13:31.421Z,0.00
2019-03-27T03:14:31.449Z,0.00
2019-03-27T03:15:31.412Z,0.00
2019-03-27T03:16:41.898Z,0.00
2019-03-27T03:17:32.380Z,0.00
2019-03-27T03:18:31.384Z,0.00
2019-03-27T03:19:31.397Z,0.00
2019-03-27T03:20:31.355Z,0.00
2019-03-27T03:21:31.340Z,0.00
2019-03-27T03:22:31.361Z,0.00
2019-03-27T03:23:31.319Z,0.00
2019-03-27T03:24:31.321Z,0.00
2019-03-27T03:25:31.289Z,0.00
2019-03-27T03:26:31.295Z,0.00
2019-03-27T03:27:31.278Z,0.00
2019-03-27T03:28:31.254Z,0.00
2019-03-27T03:29:31.275Z,0.00
2019-03-27T03:30:31.283Z,0.00
2019-03-27T03:31:31.225Z,0.00
2019-03-27T03:32:31.208Z,0.00
2019-03-27T03:33:31.214Z,0.00
2019-03-27T03:34:31.221Z,0.00
2019-03-27T03:35:31.199Z,0.00
2019-03-27T03:36:31.169Z,0.00
2019-03-27T03:37:31.155Z,0.00
2019-03-27T03:38:31.145Z,0.00
2019-03-27T03:39:31.137Z,0.00
2019-03-27T03:40:31.141Z,0.00
2019-03-27T03:41:31.110Z,0.00
2019-03-27T03:42:31.111Z,0.00
2019-03-27T03:43:31.086Z,0.00
2019-03-27T03:44:31.095Z,0.00
2019-03-27T03:45:31.086Z,0.00
2019-03-27T03:46:31.059Z,0.00
2019-03-27T03:47:31.041Z,0.00
2019-03-27T03:48:31.045Z,0.00
2019-03-27T03:49:31.020Z,0.00
2019-03-27T03:50:31.034Z,0.00
2019-03-27T03:51:31.000Z,0.00
2019-03-27T03:52:31.005Z,0.00
2019-03-27T03:53:30.979Z,0.00
2019-03-27T03:54:30.964Z,0.00
2019-03-27T03:55:30.982Z,0.00
2019-03-27T03:56:30.941Z,0.00
2019-03-27T03:57:30.951Z,0.00
2019-03-27T03:58:30.921Z,0.00
2019-03-27T03:59:30.911Z,0.00
2019-03-27T04:00:30.917Z,0.00
2019-03-27T04:01:30.889Z,0.00
2019-03-27T04:02:30.876Z,0.00
2019-03-27T04:03:30.867Z,0.00
2019-03-27T04:04:30.853Z,0.00
2019-03-27T04:05:30.862Z,0.00
2019-03-27T04:06:30.832Z,0.00
2019-03-27T04:07:30.821Z,0.00
2019-03-27T04:08:30.817Z,0.00
2019-03-27T04:09:30.796Z,0.00
2019-03-27T04:10:30.852Z,0.00
2019-03-27T04:11:30.768Z,0.00
2019-03-27T04:12:30.764Z,0.00
2019-03-27T04:13:30.754Z,0.00
2019-03-27T04:14:30.755Z,0.00
2019-03-27T04:15:30.741Z,0.00
2019-03-27T04:16:30.719Z,0.00
2019-03-27T04:17:30.714Z,0.00
2019-03-27T04:18:30.697Z,0.00
2019-03-27T04:19:30.686Z,0.00
2019-03-27T04:20:30.699Z,0.00
2019-03-27T04:21:30.665Z,0.00
2019-03-27T04:22:30.665Z,0.00
2019-03-27T04:23:30.634Z,0.00
2019-03-27T04:24:30.624Z,0.00
2019-03-27T04:25:59.974Z,0.00
2019-03-27T04:26:33.571Z,4.00
2019-03-27T04:27:30.601Z,4.00
2019-03-27T04:28:30.587Z,0.00
2019-03-27T04:29:30.574Z,0.00
2019-03-27T04:30:30.583Z,4.00
2019-03-27T04:31:30.557Z,4.00
2019-03-27T04:32:30.536Z,4.00
2019-03-27T04:33:30.529Z,4.00
2019-03-27T04:34:30.539Z,4.00
2019-03-27T04:35:30.524Z,4.00
2019-03-27T04:36:30.500Z,8.00
2019-03-27T04:37:30.486Z,4.00
2019-03-27T04:38:30.650Z,4.00
2019-03-27T04:39:30.454Z,12.00
2019-03-27T04:40:30.476Z,12.00
2019-03-27T04:41:30.435Z,20.00
2019-03-27T04:42:30.439Z,16.00
2019-03-27T04:43:30.416Z,20.00
2019-03-27T04:44:30.409Z,24.00
2019-03-27T04:45:30.426Z,24.00
2019-03-27T04:46:30.380Z,32.00
2019-03-27T04:47:32.486Z,36.00
2019-03-27T04:48:30.360Z,36.00
2019-03-27T04:49:30.346Z,36.00
2019-03-27T04:50:30.354Z,40.00
2019-03-27T04:51:30.325Z,60.00
2019-03-27T04:52:30.321Z,56.00
2019-03-27T04:53:30.320Z,52.00
2019-03-27T04:54:30.290Z,60.00
2019-03-27T04:55:30.315Z,68.00
2019-03-27T04:56:30.268Z,80.00
2019-03-27T04:57:30.262Z,84.00
2019-03-27T04:58:30.250Z,92.00
2019-03-27T04:59:30.238Z,112.00
2019-03-27T05:00:30.222Z,140.00
2019-03-27T05:01:30.282Z,160.00
2019-03-27T05:02:30.198Z,164.00
2019-03-27T05:03:30.200Z,156.00
2019-03-27T05:04:30.177Z,152.00
2019-03-27T05:05:30.174Z,148.00
2019-03-27T05:06:30.178Z,180.00
2019-03-27T05:07:30.162Z,208.00
2019-03-27T05:08:30.136Z,256.00
2019-03-27T05:09:30.124Z,236.00
2019-03-27T05:10:30.110Z,220.00
2019-03-27T05:11:30.229Z,248.00
2019-03-27T05:12:30.093Z,296.00
2019-03-27T05:13:30.083Z,292.00
2019-03-27T05:14:30.073Z,300.00
2019-03-27T05:15:30.058Z,288.00
2019-03-27T05:16:30.064Z,340.00
2019-03-27T05:17:30.035Z,412.00
2019-03-27T05:18:30.024Z,396.00
2019-03-27T05:19:30.009Z,392.00
2019-03-27T05:20:30.000Z,336.00
2019-03-27T05:21:30.037Z,364.00
2019-03-27T05:22:29.981Z,416.00
2019-03-27T05:23:29.975Z,444.00
2019-03-27T05:24:29.957Z,432.00
2019-03-27T05:25:29.941Z,480.00
2019-03-27T05:26:29.933Z,572.00
2019-03-27T05:27:29.934Z,600.00
2019-03-27T05:28:29.909Z,544.00
2019-03-27T05:29:29.901Z,516.00
2019-03-27T05:30:29.887Z,572.00
2019-03-27T05:31:29.891Z,624.00
2019-03-27T05:32:29.895Z,532.00
2019-03-27T05:33:32.544Z,568.00
2019-03-27T05:34:29.871Z,536.00
2019-03-27T05:35:29.852Z,596.00
2019-03-27T05:36:29.821Z,512.00
2019-03-27T05:37:29.826Z,624.00
2019-03-27T05:38:29.822Z,656.00
2019-03-27T05:39:29.802Z,580.00
2019-03-27T05:40:29.783Z,596.00
2019-03-27T05:41:29.766Z,716.00
2019-03-27T05:42:29.778Z,716.00
2019-03-27T05:43:29.764Z,688.00
2019-03-27T05:44:29.727Z,624.00
2019-03-27T05:45:29.722Z,636.00
2019-03-27T05:46:29.719Z,768.00
2019-03-27T05:47:29.718Z,620.00
2019-03-27T05:48:29.684Z,640.00
2019-03-27T05:49:29.685Z,648.00
2019-03-27T05:50:30.545Z,744.00
2019-03-27T05:51:29.662Z,920.00
2019-03-27T05:52:29.720Z,884.00
2019-03-27T05:53:29.633Z,936.00
2019-03-27T05:54:29.616Z,852.00
2019-03-27T05:55:29.623Z,976.00
2019-03-27T05:56:29.592Z,884.00
2019-03-27T05:57:29.603Z,872.00
2019-03-27T05:58:29.573Z,848.00
2019-03-27T05:59:29.561Z,820.00
2019-03-27T06:00:29.664Z,836.00
2019-03-27T06:01:29.542Z,900.00
2019-03-27T06:02:29.546Z,924.00
2019-03-27T06:03:29.515Z,1120.00
2019-03-27T06:04:29.507Z,1116.00
2019-03-27T06:05:29.494Z,804.00
2019-03-27T06:06:29.489Z,1056.00
2019-03-27T06:07:29.508Z,1044.00
2019-03-27T06:08:29.468Z,1068.00
2019-03-27T06:09:29.454Z,964.00
2019-03-27T06:10:29.439Z,984.00
2019-03-27T06:11:29.440Z,1088.00
2019-03-27T06:12:29.440Z,1004.00
2019-03-27T06:13:29.405Z,988.00
2019-03-27T06:14:29.396Z,960.00
2019-03-27T06:15:29.384Z,872.00
2019-03-27T06:16:29.375Z,1008.00
2019-03-27T06:17:29.381Z,944.00
2019-03-27T06:18:29.367Z,1068.00
2019-03-27T06:19:29.341Z,1420.00
2019-03-27T06:20:29.349Z,1472.00
2019-03-27T06:21:29.314Z,1388.00
2019-03-27T06:22:29.431Z,1240.00
2019-03-27T06:23:29.309Z,1076.00
2019-03-27T06:24:29.277Z,1120.00
2019-03-27T06:25:29.278Z,1200.00
2019-03-27T06:26:29.258Z,1180.00
2019-03-27T06:27:29.252Z,1216.00
2019-03-27T06:28:29.254Z,1184.00
2019-03-27T06:29:29.226Z,1324.00
2019-03-27T06:30:29.224Z,1512.00
2019-03-27T06:31:29.211Z,1368.00
2019-03-27T06:32:29.222Z,1400.00
2019-03-27T06:33:29.196Z,1304.00
2019-03-27T06:34:29.187Z,1440.00
2019-03-27T06:35:29.154Z,1740.00
2019-03-27T06:36:29.147Z,1336.00
2019-03-27T06:37:29.135Z,1892.00
2019-03-27T06:38:29.145Z,2012.00
2019-03-27T06:39:29.116Z,2660.00
2019-03-27T06:40:29.109Z,3228.00
2019-03-27T06:41:29.090Z,2500.00
2019-03-27T06:42:29.101Z,2772.00
2019-03-27T06:43:29.096Z,2748.00
2019-03-27T06:44:29.059Z,2460.00
2019-03-27T06:45:29.053Z,3024.00
2019-03-27T06:46:29.033Z,3116.00
2019-03-27T06:47:29.029Z,3212.00
2019-03-27T06:48:29.030Z,2848.00
2019-03-27T06:49:29.000Z,2236.00
2019-03-27T06:50:28.997Z,1956.00
2019-03-27T06:51:39.391Z,2360.00
2019-03-27T06:52:29.963Z,2840.00
2019-03-27T06:53:28.978Z,2688.00
2019-03-27T06:54:28.949Z,2992.00
2019-03-27T06:55:28.935Z,3120.00
2019-03-27T06:56:28.926Z,3176.00
2019-03-27T06:57:28.915Z,3476.00
2019-03-27T06:58:28.921Z,3388.00
2019-03-27T06:59:28.885Z,2796.00
2019-03-27T07:00:28.874Z,2364.00
2019-03-27T07:01:28.875Z,2496.00
2019-03-27T07:02:29.098Z,2764.00
2019-03-27T07:03:28.874Z,3596.00
2019-03-27T07:04:28.838Z,3832.00
2019-03-27T07:05:28.818Z,4696.00
2019-03-27T07:06:28.812Z,4436.00
2019-03-27T07:07:28.804Z,3600.00
2019-03-27T07:08:28.845Z,3680.00
2019-03-27T07:09:30.103Z,3968.00
2019-03-27T07:10:28.773Z,3840.00
2019-03-27T07:11:28.752Z,3268.00
2019-03-27T07:12:28.744Z,3340.00
2019-03-27T07:13:28.757Z,3628.00
2019-03-27T07:14:28.721Z,3908.00
2019-03-27T07:15:28.715Z,4412.00
2019-03-27T07:16:28.697Z,4604.00
2019-03-27T07:17:28.689Z,5052.00
2019-03-27T07:18:39.462Z,6308.00
2019-03-27T07:19:28.674Z,6528.00
2019-03-27T07:20:28.647Z,7216.00
2019-03-27T07:21:28.649Z,6748.00
2019-03-27T07:22:28.631Z,6384.00
2019-03-27T07:23:28.815Z,3984.00
2019-03-27T07:24:28.634Z,3724.00
2019-03-27T07:25:28.598Z,5496.00
2019-03-27T07:26:28.601Z,5412.00
2019-03-27T07:27:28.608Z,5744.00
2019-03-27T07:28:28.589Z,5932.00
2019-03-27T07:29:28.553Z,4652.00
2019-03-27T07:30:28.549Z,5504.00
2019-03-27T07:31:28.546Z,5944.00
2019-03-27T07:32:28.529Z,5728.00
2019-03-27T07:33:28.564Z,6100.00
2019-03-27T07:34:28.525Z,5708.00
2019-03-27T07:35:28.516Z,6072.00
2019-03-27T07:36:28.473Z,6260.00
2019-03-27T07:37:28.466Z,6048.00
2019-03-27T07:38:28.481Z,6740.00
2019-03-27T07:39:28.441Z,6884.00
2019-03-27T07:40:28.435Z,7236.00
2019-03-27T07:41:28.420Z,7232.00
2019-03-27T07:42:29.026Z,7112.00
2019-03-27T07:43:28.422Z,5616.00
2019-03-27T07:44:28.395Z,5360.00
2019-03-27T07:45:28.377Z,5912.00
2019-03-27T07:46:28.376Z,6300.00
2019-03-27T07:47:28.357Z,5484.00
2019-03-27T07:48:28.368Z,4624.00
2019-03-27T07:49:28.342Z,5356.00
2019-03-27T07:50:28.318Z,6780.00
2019-03-27T07:51:28.315Z,6740.00
2019-03-27T07:52:28.304Z,7884.00
2019-03-27T07:53:28.321Z,7824.00
2019-03-27T07:54:28.273Z,7260.00
2019-03-27T07:55:28.260Z,6840.00
2019-03-27T07:56:28.252Z,6104.00
2019-03-27T07:57:28.248Z,4732.00
2019-03-27T07:58:28.332Z,3844.00
2019-03-27T07:59:28.222Z,3780.00
2019-03-27T08:00:28.224Z,3800.00
2019-03-27T08:01:28.202Z,4516.00
2019-03-27T08:02:28.188Z,5884.00
2019-03-27T08:03:28.195Z,6348.00
2019-03-27T08:04:28.202Z,6416.00
2019-03-27T08:05:28.163Z,6912.00
2019-03-27T08:06:28.160Z,7468.00
2019-03-27T08:07:28.139Z,7636.00
2019-03-27T08:08:28.124Z,7312.00
2019-03-27T08:09:28.136Z,7180.00
2019-03-27T08:10:28.100Z,6480.00
2019-03-27T08:11:28.196Z,5952.00
2019-03-27T08:12:28.083Z,5324.00
2019-03-27T08:13:28.114Z,4572.00
2019-03-27T08:14:28.090Z,4728.00
2019-03-27T08:15:28.189Z,4176.00
2019-03-27T08:16:28.067Z,3640.00
2019-03-27T08:17:28.037Z,4448.00
2019-03-27T08:18:28.052Z,6064.00
2019-03-27T08:19:28.060Z,6432.00
2019-03-27T08:20:27.988Z,6200.00
2019-03-27T08:21:31.014Z,5196.00
2019-03-27T08:22:27.969Z,4080.00
2019-03-27T08:23:27.985Z,3464.00
2019-03-27T08:24:27.985Z,3348.00
2019-03-27T08:25:27.929Z,3140.00
2019-03-27T08:26:27.915Z,3204.00
2019-03-27T08:27:27.911Z,3164.00
2019-03-27T08:28:27.904Z,3308.00
2019-03-27T08:29:27.927Z,3440.00
2019-03-27T08:30:27.871Z,3928.00
2019-03-27T08:31:27.865Z,4144.00
2019-03-27T08:32:27.843Z,4728.00
2019-03-27T08:33:27.846Z,5868.00
2019-03-27T08:34:27.843Z,7096.00
2019-03-27T08:35:27.827Z,7032.00
2019-03-27T08:36:27.819Z,6436.00
2019-03-27T08:37:27.809Z,6468.00
2019-03-27T08:38:27.781Z,8676.00
2019-03-27T08:39:28.155Z,10216.00
2019-03-27T08:40:27.793Z,10540.00
2019-03-27T08:41:27.761Z,9520.00
2019-03-27T08:42:27.750Z,8416.00
2019-03-27T08:43:27.724Z,8024.00
2019-03-27T08:44:27.745Z,8736.00
2019-03-27T08:45:27.718Z,8484.00
2019-03-27T08:46:27.692Z,6884.00
2019-03-27T08:47:27.679Z,5288.00
2019-03-27T08:48:27.675Z,5404.00
2019-03-27T08:49:27.683Z,6688.00
2019-03-27T08:50:27.668Z,8148.00
2019-03-27T08:51:27.655Z,7620.00
2019-03-27T08:52:27.624Z,6488.00
2019-03-27T08:53:27.617Z,5780.00
2019-03-27T08:54:27.603Z,5556.00
2019-03-27T08:55:27.628Z,5440.00
2019-03-27T08:56:27.588Z,4608.00
2019-03-27T08:57:27.567Z,4624.00
2019-03-27T08:58:27.647Z,5936.00
2019-03-27T08:59:27.553Z,6512.00
2019-03-27T09:00:27.566Z,5524.00
2019-03-27T09:01:27.524Z,5868.00
2019-03-27T09:02:27.524Z,5444.00
2019-03-27T09:03:27.512Z,4904.00
2019-03-27T09:04:27.488Z,4708.00
2019-03-27T09:05:27.580Z,5460.00
2019-03-27T09:06:33.536Z,5808.00
2019-03-27T09:07:28.462Z,5224.00
2019-03-27T09:08:27.442Z,5832.00
2019-03-27T09:09:27.431Z,6768.00
2019-03-27T09:10:27.472Z,5412.00
2019-03-27T09:11:27.414Z,4332.00
2019-03-27T09:12:27.402Z,4344.00
2019-03-27T09:13:27.396Z,5088.00
2019-03-27T09:14:27.392Z,4532.00
2019-03-27T09:15:27.386Z,4064.00
2019-03-27T09:16:27.350Z,4092.00
2019-03-27T09:17:27.351Z,5164.00
2019-03-27T09:18:27.338Z,4924.00
2019-03-27T09:19:35.468Z,4716.00
2019-03-27T09:20:28.327Z,4736.00
2019-03-27T09:21:27.297Z,5076.00
2019-03-27T09:22:27.288Z,5088.00
2019-03-27T09:23:27.282Z,6100.00
2019-03-27T09:24:27.282Z,5968.00
2019-03-27T09:25:27.286Z,5392.00
2019-03-27T09:26:27.244Z,4892.00
2019-03-27T09:27:27.234Z,4428.00
2019-03-27T09:28:27.223Z,5536.00
2019-03-27T09:29:27.219Z,6928.00
2019-03-27T09:30:27.224Z,6052.00
2019-03-27T09:31:27.222Z,5724.00
2019-03-27T09:32:27.174Z,8064.00
2019-03-27T09:33:27.167Z,8504.00
2019-03-27T09:34:27.154Z,7060.00
2019-03-27T09:35:27.167Z,6336.00
2019-03-27T09:36:27.144Z,5848.00
2019-03-27T09:37:27.115Z,5036.00
2019-03-27T09:38:27.102Z,4584.00
2019-03-27T09:39:27.099Z,4324.00
2019-03-27T09:40:27.097Z,5156.00
2019-03-27T09:41:27.123Z,6580.00
2019-03-27T09:42:27.067Z,10220.00
2019-03-27T09:43:27.051Z,13960.00
2019-03-27T09:44:27.037Z,14824.00
2019-03-27T09:45:27.055Z,17632.00
2019-03-27T09:46:27.030Z,17952.00
2019-03-27T09:47:27.002Z,18496.00
2019-03-27T09:48:26.981Z,20512.00
2019-03-27T09:49:26.980Z,22144.00
2019-03-27T09:50:26.966Z,18208.00
2019-03-27T09:51:26.989Z,11528.00
2019-03-27T09:52:26.943Z,12488.00
2019-03-27T09:53:26.927Z,13884.00
2019-03-27T09:54:26.914Z,10776.00
2019-03-27T09:55:26.903Z,9656.00
2019-03-27T09:56:26.912Z,11228.00
2019-03-27T09:57:26.889Z,9468.00
2019-03-27T09:58:26.876Z,9084.00
2019-03-27T09:59:26.866Z,9264.00
2019-03-27T10:00:26.853Z,11236.00
2019-03-27T10:01:26.861Z,10424.00
2019-03-27T10:02:26.827Z,10676.00
2019-03-27T10:03:26.831Z,10432.00
2019-03-27T10:04:26.808Z,9476.00
2019-03-27T10:05:26.788Z,8672.00
2019-03-27T10:06:26.807Z,7364.00
2019-03-27T10:07:26.772Z,7140.00
2019-03-27T10:08:26.763Z,6960.00
2019-03-27T10:09:26.752Z,6168.00
2019-03-27T10:10:26.728Z,5828.00
2019-03-27T10:11:26.742Z,4900.00
2019-03-27T10:12:26.713Z,5160.00
2019-03-27T10:13:26.702Z,7348.00
2019-03-27T10:14:26.703Z,7824.00
2019-03-27T10:15:26.694Z,5576.00
2019-03-27T10:16:26.708Z,4572.00
2019-03-27T10:17:26.686Z,4628.00
2019-03-27T10:18:26.641Z,4956.00
2019-03-27T10:19:26.640Z,5368.00
2019-03-27T10:20:26.631Z,5752.00
2019-03-27T10:21:26.643Z,4916.00
2019-03-27T10:22:26.608Z,5296.00
2019-03-27T10:23:26.594Z,7216.00
2019-03-27T10:24:26.574Z,8940.00
2019-03-27T10:25:26.576Z,10236.00
2019-03-27T10:26:26.594Z,11696.00
2019-03-27T10:27:26.545Z,8960.00
2019-03-27T10:28:26.533Z,7284.00
2019-03-27T10:29:26.518Z,7440.00
2019-03-27T10:30:26.510Z,6352.00
2019-03-27T10:31:26.623Z,6768.00
2019-03-27T10:32:26.511Z,7756.00
2019-03-27T10:33:26.472Z,8664.00
2019-03-27T10:34:26.466Z,7820.00
2019-03-27T10:35:26.452Z,6904.00
2019-03-27T10:36:26.462Z,7876.00
2019-03-27T10:37:26.436Z,7708.00
2019-03-27T10:38:26.422Z,5976.00
2019-03-27T10:39:26.409Z,6620.00
2019-03-27T10:40:26.414Z,7152.00
2019-03-27T10:41:26.412Z,7592.00
2019-03-27T10:42:26.378Z,8288.00
2019-03-27T10:43:26.367Z,9016.00
2019-03-27T10:44:26.363Z,7424.00
2019-03-27T10:45:26.346Z,7296.00
2019-03-27T10:46:26.366Z,6236.00
2019-03-27T10:47:26.332Z,7776.00
2019-03-27T10:48:26.308Z,7108.00
2019-03-27T10:49:26.308Z,5856.00
2019-03-27T10:50:26.286Z,6488.00
2019-03-27T10:51:26.282Z,9652.00
2019-03-27T10:52:26.279Z,10124.00
2019-03-27T10:53:26.256Z,6788.00
2019-03-27T10:54:26.269Z,6888.00
2019-03-27T10:55:26.248Z,9036.00
2019-03-27T10:56:26.230Z,12208.00
2019-03-27T10:57:26.236Z,8940.00
2019-03-27T10:58:26.259Z,8380.00
2019-03-27T10:59:26.191Z,11700.00
2019-03-27T11:00:26.185Z,10928.00
2019-03-27T11:01:26.164Z,6936.00
2019-03-27T11:02:26.176Z,6008.00
2019-03-27T11:03:26.149Z,6400.00
2019-03-27T11:04:26.129Z,6952.00
2019-03-27T11:05:26.116Z,8840.00
2019-03-27T11:06:26.114Z,8676.00
2019-03-27T11:07:26.108Z,6876.00
2019-03-27T11:08:26.175Z,5908.00
2019-03-27T11:09:26.074Z,7952.00
2019-03-27T11:10:26.069Z,9552.00
2019-03-27T11:11:26.061Z,8356.00
2019-03-27T11:12:26.056Z,7132.00
2019-03-27T11:13:26.025Z,6144.00
2019-03-27T11:14:37.251Z,5960.00
2019-03-27T11:15:27.009Z,6356.00
2019-03-27T11:16:25.996Z,6324.00
2019-03-27T11:17:26.015Z,7492.00
2019-03-27T11:18:25.986Z,7960.00
2019-03-27T11:19:25.964Z,6828.00
2019-03-27T11:20:31.220Z,7076.00
2019-03-27T11:21:26.936Z,7872.00
2019-03-27T11:22:25.958Z,9468.00
2019-03-27T11:23:25.933Z,7248.00
2019-03-27T11:24:25.919Z,7016.00
2019-03-27T11:25:25.895Z,5756.00
2019-03-27T11:26:25.881Z,6000.00
2019-03-27T11:27:26.183Z,6828.00
2019-03-27T11:28:25.864Z,5744.00
2019-03-27T11:29:25.838Z,5232.00
2019-03-27T11:30:25.838Z,5164.00
2019-03-27T11:31:25.820Z,5984.00
2019-03-27T11:32:25.828Z,6372.00
2019-03-27T11:33:28.825Z,6448.00
2019-03-27T11:34:25.792Z,6356.00
2019-03-27T11:35:25.784Z,6028.00
2019-03-27T11:36:25.776Z,5772.00
2019-03-27T11:37:25.774Z,5204.00
2019-03-27T11:38:25.789Z,4880.00
2019-03-27T11:39:25.736Z,4324.00
2019-03-27T11:40:25.718Z,4540.00
2019-03-27T11:41:25.709Z,5680.00
2019-03-27T11:42:25.708Z,7340.00
2019-03-27T11:43:25.727Z,6512.00
2019-03-27T11:44:25.693Z,5228.00
2019-03-27T11:45:25.665Z,5464.00
2019-03-27T11:46:25.648Z,4608.00
2019-03-27T11:47:25.649Z,4700.00
2019-03-27T11:48:25.653Z,6456.00
2019-03-27T11:49:25.628Z,7180.00
2019-03-27T11:50:25.614Z,6972.00
2019-03-27T11:51:25.601Z,8180.00
2019-03-27T11:52:25.587Z,10324.00
2019-03-27T11:53:25.611Z,11296.00
2019-03-27T11:54:25.626Z,11648.00
2019-03-27T11:55:25.545Z,10468.00
2019-03-27T11:56:25.547Z,8432.00
2019-03-27T11:57:25.605Z,7448.00
2019-03-27T11:58:25.555Z,7892.00
2019-03-27T11:59:25.503Z,6728.00
2019-03-27T12:00:25.509Z,5844.00
2019-03-27T12:01:38.683Z,8336.00
2019-03-27T12:02:26.469Z,12504.00
2019-03-27T12:03:25.483Z,9196.00
2019-03-27T12:04:25.448Z,7652.00
2019-03-27T12:05:25.443Z,6412.00
2019-03-27T12:06:25.434Z,6488.00
2019-03-27T12:07:25.414Z,6584.00
2019-03-27T12:08:25.422Z,5144.00
2019-03-27T12:09:25.390Z,4612.00
2019-03-27T12:10:25.389Z,5576.00
2019-03-27T12:11:25.375Z,6680.00
2019-03-27T12:12:25.360Z,6904.00
2019-03-27T12:13:25.368Z,6240.00
2019-03-27T12:14:25.341Z,9132.00
2019-03-27T12:15:25.329Z,11736.00
2019-03-27T12:16:25.314Z,14528.00
2019-03-27T12:17:25.311Z,17824.00
2019-03-27T12:18:25.323Z,24192.00
2019-03-27T12:19:25.289Z,45056.00
2019-03-27T12:20:25.268Z,40064.00
2019-03-27T12:21:25.257Z,39168.00
2019-03-27T12:22:25.258Z,35936.00
2019-03-27T12:23:25.318Z,32800.00
2019-03-27T12:24:25.225Z,27104.00
2019-03-27T12:25:26.567Z,19744.00
2019-03-27T12:26:25.213Z,12952.00
2019-03-27T12:27:25.198Z,9908.00
2019-03-27T12:28:25.200Z,9244.00
2019-03-27T12:29:25.199Z,8636.00
2019-03-27T12:30:25.174Z,9420.00
2019-03-27T12:31:25.158Z,10056.00
2019-03-27T12:32:25.257Z,7584.00
2019-03-27T12:33:25.226Z,5696.00